Time;durP1;ratioP1;P1;durP2;ratioP2;P2;SDS_P1;SDS_P2;PMS_P1;PMS_P2;Temp;Humidity;BMP_temperature;BMP_pressure;BME280_temperature;BME280_humidity;BME280_pressure;Samples;Min_cycle;Max_cycle;Signal;HPM_P1;HPM_P2
2022/08/11 00:00:09;;;;;;;3.20;2.57;;;;;;;;;;4979072;28;20444;-75
2022/08/11 00:02:35;;;;;;;3.83;2.23;;;;;;;;;;4990464;28;20440;-77
2022/08/11 00:05:06;;;;;;;2.83;2.57;;;;;;;;;;5006336;28;20441;-77
2022/08/11 00:07:33;;;;;;;2.67;2.30;;;;;;;;;;4982743;28;20455;-78
2022/08/11 00:10:00;;;;;;;3.57;2.10;;;;;;;;;;4983827;28;20453;-77
2022/08/11 00:15:43;;;;;;;3.23;2.93;;;;;;;;;;5001886;28;20482;-77
2022/08/11 00:18:19;;;;;;;5.43;2.67;;;;;;;;;;4999348;28;20436;-78
2022/08/11 00:20:46;;;;;;;5.23;2.67;;;;;;;;;;4978722;28;20444;-78
2022/08/11 00:23:19;;;;;;;3.63;2.40;;;;;;;;;;4989388;28;20447;-77
2022/08/11 00:25:52;;;;;;;3.40;1.90;;;;;;;;;;4976762;28;20841;-77
2022/08/11 00:28:25;;;;;;;3.60;2.37;;;;;;;;;;4980091;28;20439;-77
2022/08/11 00:30:51;;;;;;;3.40;2.50;;;;;;;;;;4985949;28;21167;-77
2022/08/11 00:33:20;;;;;;;2.53;2.30;;;;;;;;;;4993298;28;20443;-78
2022/08/11 00:35:48;;;;;;;4.40;2.53;;;;;;;;;;4987440;28;20481;-77
2022/08/11 00:38:15;;;;;;;3.23;2.50;;;;;;;;;;4995435;28;20447;-78
2022/08/11 00:40:44;;;;;;;3.43;2.20;;;;;;;;;;5009595;28;20669;-77
2022/08/11 00:43:20;;;;;;;4.10;2.67;;;;;;;;;;4983542;28;20780;-77
2022/08/11 00:45:52;;;;;;;3.03;2.73;;;;;;;;;;5004362;28;20814;-78
2022/08/11 00:48:37;;;;;;;7.63;4.00;;;;;;;;;;4959173;28;22240;-75
2022/08/11 00:51:09;;;;;;;5.97;3.77;;;;;;;;;;5011491;28;20568;-77
2022/08/11 00:53:39;;;;;;;4.87;3.03;;;;;;;;;;4981987;28;20424;-75
2022/08/11 00:56:24;;;;;;;4.43;4.03;;;;;;;;;;4986228;28;20858;-78
2022/08/11 00:58:56;;;;;;;4.00;2.97;;;;;;;;;;5008820;28;20877;-77
2022/08/11 01:01:34;;;;;;;6.40;3.10;;;;;;;;;;5007928;28;20432;-75
2022/08/11 01:04:16;;;;;;;2.80;2.27;;;;;;;;;;4995339;28;20436;-76
2022/08/11 01:07:21;;;;;;;;;;;;;;;;;;;;;
2022/08/11 01:09:56;;;;;;;3.00;2.57;;;;;;;;;;4978443;28;20452;-77
2022/08/11 01:12:23;;;;;;;3.80;2.30;;;;;;;;;;5007242;28;20951;-74
2022/08/11 01:15:08;;;;;;;3.30;3.00;;;;;;;;;;4987319;28;20869;-77
2022/08/11 01:20:47;;;;;;;2.70;2.50;;;;;;;;;;5009655;28;21030;-76
2022/08/11 01:23:31;;;;;;;2.93;2.60;;;;;;;;;;4981248;28;20920;-77
2022/08/11 01:26:16;;;;;;;5.20;2.40;;;;;;;;;;4983837;28;20516;-78
2022/08/11 01:28:46;;;;;;;3.90;2.70;;;;;;;;;;5007766;28;20463;-78
2022/08/11 01:31:30;;;;;;;4.17;2.33;;;;;;;;;;4995788;28;20471;-77
2022/08/11 01:34:15;;;;;;;4.33;2.30;;;;;;;;;;5012038;28;20447;-77
2022/08/11 01:36:41;;;;;;;3.00;2.70;;;;;;;;;;5006272;28;20471;-79
2022/08/11 01:39:10;;;;;;;4.60;2.60;;;;;;;;;;5005110;28;20439;-77
2022/08/11 01:44:54;;;;;;;3.10;2.50;;;;;;;;;;4990988;28;20463;-75
2022/08/11 01:50:14;;;;;;;2.57;2.07;;;;;;;;;;4982387;28;20890;-77
2022/08/11 01:53:00;;;;;;;2.53;2.20;;;;;;;;;;5003974;28;20440;-78
2022/08/11 01:55:30;;;;;;;2.20;2.00;;;;;;;;;;4943550;28;20472;-77
2022/08/11 01:58:04;;;;;;;2.50;2.30;;;;;;;;;;5009315;28;20475;-77
2022/08/11 02:00:31;;;;;;;2.10;1.67;;;;;;;;;;5005779;28;20442;-77
2022/08/11 02:03:01;;;;;;;2.30;2.10;;;;;;;;;;4994236;28;20510;-78
2022/08/11 02:05:45;;;;;;;2.70;2.40;;;;;;;;;;4979423;28;20466;-75
2022/08/11 02:08:15;;;;;;;3.80;2.30;;;;;;;;;;4999445;28;20475;-77
2022/08/11 02:13:50;;;;;;;3.00;2.17;;;;;;;;;;5005230;28;20444;-75
2022/08/11 02:16:17;;;;;;;3.60;2.60;;;;;;;;;;4998717;28;20487;-76
2022/08/11 02:24:36;;;;;;;2.50;2.30;;;;;;;;;;5006842;28;20447;-78
2022/08/11 02:27:07;;;;;;;2.90;2.30;;;;;;;;;;4999552;28;20452;-77
2022/08/11 02:29:46;;;;;;;3.47;2.17;;;;;;;;;;4968559;28;21108;-75
2022/08/11 02:35:22;;;;;;;5.87;2.77;;;;;;;;;;4980176;28;20509;-77
2022/08/11 02:38:03;;;;;;;2.70;2.50;;;;;;;;;;4989628;28;20432;-78
2022/08/11 02:40:32;;;;;;;3.80;2.47;;;;;;;;;;5005668;28;20815;-77
2022/08/11 02:43:13;;;;;;;5.90;2.50;;;;;;;;;;5004136;28;20433;-77
2022/08/11 02:45:40;;;;;;;2.50;2.30;;;;;;;;;;4970738;28;20448;-77
2022/08/11 02:51:13;;;;;;;3.80;2.50;;;;;;;;;;5009100;28;20423;-77
2022/08/11 02:53:42;;;;;;;2.37;2.17;;;;;;;;;;5005079;28;20467;-77
2022/08/11 02:56:27;;;;;;;2.83;2.57;;;;;;;;;;4992632;28;20484;-77
2022/08/11 03:02:21;;;;;;;2.87;2.67;;;;;;;;;;4999678;28;20487;-77
2022/08/11 03:04:57;;;;;;;2.83;2.37;;;;;;;;;;4976065;28;20459;-77
2022/08/11 03:07:25;;;;;;;4.03;2.50;;;;;;;;;;5013200;28;20950;-75
2022/08/11 03:09:59;;;;;;;2.30;2.10;;;;;;;;;;4971739;28;20449;-77
2022/08/11 03:18:17;;;;;;;3.13;2.33;;;;;;;;;;5003946;28;20513;-75
2022/08/11 03:20:43;;;;;;;3.80;2.60;;;;;;;;;;5002523;28;20501;-77
2022/08/11 03:23:18;;;;;;;3.60;2.67;;;;;;;;;;4996396;28;20440;-75
2022/08/11 03:25:46;;;;;;;3.40;2.70;;;;;;;;;;5003225;28;20479;-77
2022/08/11 03:28:28;;;;;;;4.60;3.00;;;;;;;;;;4976493;28;20456;-75
2022/08/11 03:30:54;;;;;;;4.23;2.77;;;;;;;;;;5006059;28;20427;-77
2022/08/11 03:36:24;;;;;;;3.23;2.90;;;;;;;;;;5001448;28;20487;-75
2022/08/11 03:39:02;;;;;;;8.03;2.80;;;;;;;;;;5000704;28;20520;-77
2022/08/11 03:41:46;;;;;;;3.37;2.37;;;;;;;;;;4996532;28;20425;-77
2022/08/11 03:44:32;;;;;;;3.73;2.30;;;;;;;;;;4973620;28;20444;-77
2022/08/11 03:47:18;;;;;;;3.13;2.80;;;;;;;;;;4989532;28;21045;-77
2022/08/11 03:49:56;;;;;;;3.83;2.20;;;;;;;;;;4988856;28;20443;-77
2022/08/11 03:52:37;;;;;;;3.77;2.63;;;;;;;;;;5010214;28;20452;-77
2022/08/11 03:55:14;;;;;;;4.00;2.70;;;;;;;;;;4987491;28;20466;-77
2022/08/11 03:57:59;;;;;;;2.57;2.37;;;;;;;;;;4973221;28;20435;-77
2022/08/11 04:00:45;;;;;;;3.23;2.63;;;;;;;;;;4993748;28;20451;-74
2022/08/11 04:03:37;;;;;;;3.30;3.00;;;;;;;;;;4944273;28;20557;-75
2022/08/11 04:06:18;;;;;;;3.30;3.00;;;;;;;;;;4988974;28;20430;-77
2022/08/11 04:09:03;;;;;;;3.47;3.17;;;;;;;;;;4976892;28;20660;-76
2022/08/11 04:11:29;;;;;;;4.40;3.50;;;;;;;;;;5006017;28;20463;-76
2022/08/11 04:15:58;;;;;;;3.00;2.60;;;;;;;;;;4999294;28;20476;-76
2022/08/11 04:16:48;;;;;;;3.47;2.90;;;;;;;;;;4998727;28;20240;-76
2022/08/11 04:19:17;;;;;;;4.17;3.30;;;;;;;;;;4961999;28;20444;-76
2022/08/11 04:21:43;;;;;;;5.57;3.13;;;;;;;;;;5007797;28;20432;-76
2022/08/11 04:24:29;;;;;;;3.43;3.13;;;;;;;;;;4987114;28;20454;-76
2022/08/11 04:27:07;;;;;;;2.33;2.13;;;;;;;;;;5003356;28;20500;-76
2022/08/11 04:29:35;;;;;;;4.17;3.10;;;;;;;;;;4964526;28;21169;-77
2022/08/11 04:32:17;;;;;;;3.43;3.13;;;;;;;;;;5002914;28;20464;-77
2022/08/11 04:34:44;;;;;;;2.90;2.70;;;;;;;;;;4957375;28;20515;-77
2022/08/11 04:37:35;;;;;;;3.13;2.77;;;;;;;;;;5013595;28;20825;-76
2022/08/11 04:40:20;;;;;;;4.50;3.47;;;;;;;;;;4994009;28;20433;-76
2022/08/11 04:43:19;;;;;;;3.23;2.83;;;;;;;;;;4984799;28;20441;-77
2022/08/11 04:45:45;;;;;;;7.53;3.20;;;;;;;;;;5000905;28;20984;-76
2022/08/11 05:06:10;;;;;;;6.13;3.23;;;;;;;;;;4971509;28;20459;-76
2022/08/11 05:08:52;;;;;;;3.00;2.80;;;;;;;;;;4987498;28;20467;-76
2022/08/11 05:11:23;;;;;;;3.60;3.30;;;;;;;;;;4982987;28;20496;-76
2022/08/11 05:36:44;;;;;;;4.10;2.90;;;;;;;;;;4988105;28;20476;-76
2022/08/11 05:58:37;;;;;;;4.43;3.33;;;;;;;;;;4989901;28;20462;-76
2022/08/11 06:01:04;;;;;;;6.50;3.73;;;;;;;;;;4972441;28;20439;-76
2022/08/11 06:03:31;;;;;;;3.80;3.20;;;;;;;;;;4990299;28;20425;-76
2022/08/11 06:05:57;;;;;;;3.43;3.13;;;;;;;;;;4999335;28;20424;-78
2022/08/11 06:08:50;;;;;;;3.20;2.90;;;;;;;;;;5004721;28;20429;-76
2022/08/11 06:11:30;;;;;;;3.53;3.23;;;;;;;;;;4960722;28;20452;-78
2022/08/11 06:14:02;;;;;;;5.20;3.80;;;;;;;;;;5002847;28;20484;-77
2022/08/11 06:16:28;;;;;;;4.93;4.43;;;;;;;;;;5009816;28;20483;-77
2022/08/11 06:19:14;;;;;;;4.87;3.20;;;;;;;;;;4996743;28;21325;-77
2022/08/11 06:21:44;;;;;;;3.80;3.50;;;;;;;;;;4992150;28;20451;-77
2022/08/11 06:24:10;;;;;;;4.60;3.30;;;;;;;;;;4982137;28;20424;-77
2022/08/11 06:26:37;;;;;;;5.00;3.53;;;;;;;;;;4983019;28;21186;-77
2022/08/11 06:29:03;;;;;;;3.93;3.50;;;;;;;;;;4981615;28;20447;-75
2022/08/11 06:31:30;;;;;;;6.03;3.30;;;;;;;;;;4990264;28;20813;-77
2022/08/11 06:34:02;;;;;;;4.80;3.30;;;;;;;;;;4980103;28;20447;-77
2022/08/11 06:36:34;;;;;;;3.57;3.27;;;;;;;;;;4991826;28;20483;-76
2022/08/11 06:39:12;;;;;;;3.57;3.10;;;;;;;;;;4966682;28;20448;-74
2022/08/11 06:42:04;;;;;;;6.73;3.70;;;;;;;;;;5009288;28;20813;-77
2022/08/11 06:45:06;;;;;;;5.47;3.40;;;;;;;;;;5005381;28;20440;-76
2022/08/11 06:47:36;;;;;;;5.20;3.73;;;;;;;;;;4984151;28;21213;-77
2022/08/11 06:53:08;;;;;;;4.73;3.90;;;;;;;;;;5005995;28;20434;-76
2022/08/11 07:01:06;;;;;;;5.27;4.13;;;;;;;;;;4987643;28;20454;-74
2022/08/11 07:03:33;;;;;;;5.13;3.83;;;;;;;;;;4999635;28;20555;-75
2022/08/11 07:06:10;;;;;;;4.67;3.77;;;;;;;;;;4979835;28;20444;-75
2022/08/11 07:28:53;;;;;;;4.20;3.90;;;;;;;;;;5001995;28;20502;-75
2022/08/11 07:29:06;;;;;;;;;;;;;;;;;;;;;
2022/08/11 07:31:40;;;;;;;4.60;4.20;;;;;;;;;;4987191;28;20504;-76
2022/08/11 07:34:21;;;;;;;5.30;4.37;;;;;;;;;;4973208;28;21078;-76
2022/08/11 07:36:51;;;;;;;6.70;5.10;;;;;;;;;;5000924;28;20506;-77
2022/08/11 07:39:21;;;;;;;5.80;4.93;;;;;;;;;;4982866;28;20527;-77
2022/08/11 07:41:47;;;;;;;6.07;4.20;;;;;;;;;;5002214;28;20460;-77
2022/08/11 07:44:15;;;;;;;6.30;4.33;;;;;;;;;;4971077;28;20789;-77
2022/08/11 07:52:33;;;;;;;4.80;4.20;;;;;;;;;;5000552;28;20490;-77
2022/08/11 07:55:00;;;;;;;5.23;4.73;;;;;;;;;;4970573;28;20531;-76
2022/08/11 08:19:27;;;;;;;5.60;3.80;;;;;;;;;;4960369;28;20732;-77
2022/08/11 08:21:53;;;;;;;5.13;3.93;;;;;;;;;;5011559;28;20428;-76
2022/08/11 08:24:19;;;;;;;9.03;3.83;;;;;;;;;;4992057;28;20189;-75
2022/08/11 08:26:57;;;;;;;4.50;4.10;;;;;;;;;;4986239;28;20448;-77
2022/08/11 08:32:10;;;;;;;4.07;3.67;;;;;;;;;;4994582;28;20426;-75
2022/08/11 08:34:36;;;;;;;4.77;3.80;;;;;;;;;;5003652;28;20423;-77
2022/08/11 08:37:02;;;;;;;4.73;4.30;;;;;;;;;;4992651;28;20475;-77
2022/08/11 08:42:33;;;;;;;6.50;4.13;;;;;;;;;;4994421;28;20435;-76
2022/08/11 08:45:05;;;;;;;5.80;3.97;;;;;;;;;;4990671;28;20432;-77
2022/08/11 08:47:46;;;;;;;7.00;3.60;;;;;;;;;;4990880;28;20437;-77
2022/08/11 08:53:31;;;;;;;3.80;3.50;;;;;;;;;;4981946;28;22681;-77
2022/08/11 08:56:01;;;;;;;5.80;3.80;;;;;;;;;;4986211;28;20476;-77
2022/08/11 08:58:27;;;;;;;7.93;3.67;;;;;;;;;;4991282;28;20939;-78
2022/08/11 09:00:53;;;;;;;3.47;3.17;;;;;;;;;;4986081;28;21001;-78
2022/08/11 09:03:23;;;;;;;6.07;4.00;;;;;;;;;;5009121;28;20488;-77
2022/08/11 09:05:50;;;;;;;4.20;3.80;;;;;;;;;;4974934;28;20436;-78
2022/08/11 09:08:17;;;;;;;5.10;3.73;;;;;;;;;;5000734;28;21731;-78
2022/08/11 09:10:44;;;;;;;4.33;3.90;;;;;;;;;;4973192;28;21478;-77
2022/08/11 09:13:13;;;;;;;3.37;3.03;;;;;;;;;;5007287;28;20463;-77
2022/08/11 09:15:39;;;;;;;6.20;4.00;;;;;;;;;;4976082;28;20598;-76
2022/08/11 09:18:08;;;;;;;3.30;3.00;;;;;;;;;;5007662;28;20436;-77
2022/08/11 09:21:01;;;;;;;5.37;3.07;;;;;;;;;;4982419;28;21307;-77
2022/08/11 09:28:56;;;;;;;5.30;3.33;;;;;;;;;;5009025;28;20459;-77
2022/08/11 09:31:22;;;;;;;4.40;2.87;;;;;;;;;;4980462;28;20450;-77
2022/08/11 09:33:50;;;;;;;5.40;3.47;;;;;;;;;;5006090;28;20487;-78
2022/08/11 09:41:52;;;;;;;4.63;3.23;;;;;;;;;;4986338;28;20454;-77
2022/08/11 09:47:12;;;;;;;5.80;3.50;;;;;;;;;;5009421;28;20432;-78
2022/08/11 09:49:38;;;;;;;4.47;3.30;;;;;;;;;;4991656;28;20432;-78
2022/08/11 09:52:08;;;;;;;3.90;3.50;;;;;;;;;;4969617;28;20443;-77
2022/08/11 09:54:34;;;;;;;3.53;2.97;;;;;;;;;;4992395;28;20444;-77
2022/08/11 09:59:50;;;;;;;4.17;2.77;;;;;;;;;;5005685;28;20438;-78
2022/08/11 10:02:17;;;;;;;3.50;3.17;;;;;;;;;;4975823;28;20447;-79
2022/08/11 10:04:47;;;;;;;3.70;3.30;;;;;;;;;;5006641;28;20408;-78
2022/08/11 10:07:14;;;;;;;3.17;2.87;;;;;;;;;;4992020;28;20440;-77
2022/08/11 10:09:40;;;;;;;3.30;2.60;;;;;;;;;;4996259;28;20437;-77
2022/08/11 10:12:10;;;;;;;3.47;2.70;;;;;;;;;;5000880;28;20468;-77
2022/08/11 10:17:22;;;;;;;2.80;2.60;;;;;;;;;;5000524;28;21033;-77
2022/08/11 10:19:48;;;;;;;5.23;3.20;;;;;;;;;;5014968;28;20796;-77
2022/08/11 10:27:43;;;;;;;3.33;3.03;;;;;;;;;;5006990;28;20538;-78
2022/08/11 10:35:40;;;;;;;7.23;2.70;;;;;;;;;;5008087;28;21193;-77
2022/08/11 10:38:06;;;;;;;3.20;2.90;;;;;;;;;;4992365;28;20432;-77
2022/08/11 10:40:34;;;;;;;4.60;3.00;;;;;;;;;;5012809;28;20921;-77
2022/08/11 10:43:02;;;;;;;3.80;3.40;;;;;;;;;;4984711;28;20427;-77
2022/08/11 10:48:20;;;;;;;5.10;3.23;;;;;;;;;;5005825;28;20987;-78
2022/08/11 10:59:07;;;;;;;3.13;2.83;;;;;;;;;;5000259;28;20443;-80
2022/08/11 11:01:34;;;;;;;4.63;3.03;;;;;;;;;;4971870;28;20440;-78
2022/08/11 11:04:01;;;;;;;11.23;2.37;;;;;;;;;;5008583;28;20445;-77
2022/08/11 11:06:43;;;;;;;3.63;3.20;;;;;;;;;;4978389;28;20444;-79
2022/08/11 11:09:22;;;;;;;4.20;2.67;;;;;;;;;;5014247;28;20482;-78
2022/08/11 11:20:12;;;;;;;5.90;2.63;;;;;;;;;;4982973;28;20467;-77
2022/08/11 11:22:46;;;;;;;5.27;2.70;;;;;;;;;;4984416;28;20436;-79
2022/08/11 11:25:30;;;;;;;4.80;2.90;;;;;;;;;;4978824;28;20458;-77
2022/08/11 11:28:03;;;;;;;3.23;2.53;;;;;;;;;;4994534;28;20498;-77
2022/08/11 11:30:36;;;;;;;2.60;2.40;;;;;;;;;;4987915;28;20444;-77
2022/08/11 11:33:03;;;;;;;4.70;2.80;;;;;;;;;;4996035;28;20436;-76
2022/08/11 11:35:30;;;;;;;2.73;2.47;;;;;;;;;;4985210;28;20484;-76
2022/08/11 11:37:56;;;;;;;2.87;2.57;;;;;;;;;;5007057;28;20451;-77
2022/08/11 11:40:22;;;;;;;4.10;3.13;;;;;;;;;;4986225;28;21013;-75
2022/08/11 11:42:49;;;;;;;3.60;3.30;;;;;;;;;;5007661;28;20432;-77
2022/08/11 11:45:16;;;;;;;2.70;2.40;;;;;;;;;;4992496;28;20510;-77
2022/08/11 11:47:43;;;;;;;4.00;2.27;;;;;;;;;;4975507;28;20433;-77
2022/08/11 11:50:09;;;;;;;3.60;2.70;;;;;;;;;;4974517;28;20452;-77
2022/08/11 11:52:35;;;;;;;2.80;2.60;;;;;;;;;;5008166;28;20439;-77
2022/08/11 11:55:01;;;;;;;2.77;2.37;;;;;;;;;;4993214;28;20428;-77
2022/08/11 12:02:57;;;;;;;2.80;2.60;;;;;;;;;;5007895;28;20442;-77
2022/08/11 12:05:24;;;;;;;3.50;2.40;;;;;;;;;;4992034;28;20519;-78
2022/08/11 12:10:35;;;;;;;3.37;2.63;;;;;;;;;;5003617;28;20448;-77
2022/08/11 12:15:47;;;;;;;3.70;2.53;;;;;;;;;;4980538;28;20578;-79
2022/08/11 12:18:13;;;;;;;3.00;2.50;;;;;;;;;;4992663;28;20510;-77
2022/08/11 12:20:39;;;;;;;3.10;2.40;;;;;;;;;;4977130;28;22452;-78
2022/08/11 12:28:34;;;;;;;2.30;2.10;;;;;;;;;;4995253;28;20432;-76
2022/08/11 12:31:00;;;;;;;2.47;2.27;;;;;;;;;;4962941;28;20848;-78
2022/08/11 12:33:27;;;;;;;3.07;2.53;;;;;;;;;;4989649;28;20428;-79
2022/08/11 12:35:56;;;;;;;4.57;2.57;;;;;;;;;;4974915;28;20509;-80
2022/08/11 12:38:22;;;;;;;2.67;2.47;;;;;;;;;;4987489;28;20947;-75
2022/08/11 12:46:44;;;;;;;2.80;2.10;;;;;;;;;;4972535;28;20883;-77
2022/08/11 12:52:00;;;;;;;2.87;1.70;;;;;;;;;;4988904;28;20558;-76
2022/08/11 12:54:29;;;;;;;2.83;2.60;;;;;;;;;;4997197;28;20490;-78
2022/08/11 13:05:27;;;;;;;3.23;2.47;;;;;;;;;;4981184;28;21034;-79
2022/08/11 13:07:59;;;;;;;2.50;2.30;;;;;;;;;;4994058;28;20994;-79
2022/08/11 13:13:10;;;;;;;3.17;2.57;;;;;;;;;;5002555;28;20509;-78
2022/08/11 13:15:36;;;;;;;2.67;2.30;;;;;;;;;;4978011;28;23562;-78
2022/08/11 13:18:02;;;;;;;2.90;2.37;;;;;;;;;;5005333;28;20207;-78
2022/08/11 13:20:29;;;;;;;3.73;2.30;;;;;;;;;;4992661;28;20428;-80
2022/08/11 13:22:55;;;;;;;3.40;2.40;;;;;;;;;;4977427;28;20432;-78
2022/08/11 13:25:23;;;;;;;2.77;2.53;;;;;;;;;;5005419;28;20440;-79
2022/08/11 13:27:49;;;;;;;2.63;2.43;;;;;;;;;;4987442;28;20428;-78
2022/08/11 13:33:00;;;;;;;3.57;2.20;;;;;;;;;;5001818;28;20459;-79
2022/08/11 13:35:27;;;;;;;3.43;2.20;;;;;;;;;;5007496;28;20581;-77
2022/08/11 13:37:55;;;;;;;3.27;2.27;;;;;;;;;;4985894;28;20428;-80
2022/08/11 13:40:51;;;;;;;2.70;2.20;;;;;;;;;;4965670;28;20743;-80
2022/08/11 13:43:20;;;;;;;2.70;2.20;;;;;;;;;;5006744;28;20460;-78
2022/08/11 13:45:47;;;;;;;2.93;2.10;;;;;;;;;;4990130;28;20440;-78
2022/08/11 13:48:14;;;;;;;4.00;2.67;;;;;;;;;;4988137;28;20472;-79
2022/08/11 13:53:25;;;;;;;2.90;2.40;;;;;;;;;;4990809;28;20445;-80
2022/08/11 13:55:52;;;;;;;2.87;2.40;;;;;;;;;;4972456;28;20630;-79
2022/08/11 13:58:19;;;;;;;2.50;2.30;;;;;;;;;;4989753;28;20449;-80
2022/08/11 14:00:48;;;;;;;2.87;2.57;;;;;;;;;;4998675;28;20491;-79
2022/08/11 14:03:15;;;;;;;3.67;2.70;;;;;;;;;;5007173;28;20429;-78
2022/08/11 14:08:44;;;;;;;3.77;2.37;;;;;;;;;;5009738;28;20434;-77
2022/08/11 14:13:57;;;;;;;2.70;2.17;;;;;;;;;;5007111;28;20483;-79
2022/08/11 14:16:26;;;;;;;4.70;2.60;;;;;;;;;;4992969;28;20463;-78
2022/08/11 14:18:53;;;;;;;4.10;3.60;;;;;;;;;;4988486;28;20447;-78
2022/08/11 14:24:04;;;;;;;3.80;2.17;;;;;;;;;;4992903;28;20463;-79
2022/08/11 14:26:35;;;;;;;3.57;2.90;;;;;;;;;;5000974;28;20524;-80
2022/08/11 14:29:21;;;;;;;2.60;2.30;;;;;;;;;;4983989;28;20827;-78
2022/08/11 14:31:57;;;;;;;2.63;2.43;;;;;;;;;;4997765;28;20939;-78
2022/08/11 14:34:26;;;;;;;2.73;2.53;;;;;;;;;;4995308;28;21058;-77
2022/08/11 14:36:55;;;;;;;2.90;2.23;;;;;;;;;;4980591;28;20476;-79
2022/08/11 14:39:22;;;;;;;2.63;2.40;;;;;;;;;;4999964;28;20440;-78
2022/08/11 14:47:27;;;;;;;2.73;2.43;;;;;;;;;;4988413;28;20431;-79
2022/08/11 14:49:54;;;;;;;3.00;2.67;;;;;;;;;;4989798;28;20428;-78
2022/08/11 14:52:19;;;;;;;7.73;2.70;;;;;;;;;;4971901;28;20452;-78
2022/08/11 14:57:36;;;;;;;3.03;2.20;;;;;;;;;;4961765;28;20574;-78
2022/08/11 15:03:08;;;;;;;3.40;2.43;;;;;;;;;;4995309;28;20447;-79
2022/08/11 15:05:35;;;;;;;2.53;2.33;;;;;;;;;;5002458;28;20471;-78
2022/08/11 15:14:06;;;;;;;3.70;2.53;;;;;;;;;;4983648;28;20545;-78
2022/08/11 15:19:19;;;;;;;6.20;2.10;;;;;;;;;;4977084;28;23332;-78
2022/08/11 15:24:32;;;;;;;3.50;2.27;;;;;;;;;;4988337;28;21001;-78
2022/08/11 15:38:23;;;;;;;7.60;4.00;;;;;;;;;;4993738;28;20586;-79
2022/08/11 15:46:53;;;;;;;3.60;2.60;;;;;;;;;;4998736;28;20968;-78
2022/08/11 15:49:25;;;;;;;4.73;2.43;;;;;;;;;;4975718;28;20451;-78
2022/08/11 15:52:06;;;;;;;4.50;2.30;;;;;;;;;;4986325;28;20459;-79
2022/08/11 15:54:32;;;;;;;4.20;2.90;;;;;;;;;;5001719;28;20428;-80
2022/08/11 15:57:00;;;;;;;3.53;2.50;;;;;;;;;;4964184;28;20487;-80
2022/08/11 16:04:58;;;;;;;3.37;2.50;;;;;;;;;;5005762;28;20480;-79
2022/08/11 16:07:26;;;;;;;3.77;2.50;;;;;;;;;;4952633;28;20463;-78
2022/08/11 16:09:57;;;;;;;3.03;2.30;;;;;;;;;;4993159;28;20497;-80
2022/08/11 16:12:27;;;;;;;6.33;2.40;;;;;;;;;;5002292;28;20432;-79
2022/08/11 16:17:44;;;;;;;3.83;2.67;;;;;;;;;;4991131;28;20527;-80
2022/08/11 16:20:11;;;;;;;3.57;2.37;;;;;;;;;;4975685;28;20445;-79
2022/08/11 16:22:45;;;;;;;3.03;2.73;;;;;;;;;;4943060;28;20714;-77
2022/08/11 16:25:12;;;;;;;3.13;2.83;;;;;;;;;;5008228;28;20427;-78
2022/08/11 16:27:40;;;;;;;3.77;2.73;;;;;;;;;;4991205;28;20444;-78
2022/08/11 16:30:06;;;;;;;4.03;2.40;;;;;;;;;;4996379;28;20534;-76
2022/08/11 16:32:32;;;;;;;3.17;2.70;;;;;;;;;;4989406;28;20448;-78
2022/08/11 16:40:29;;;;;;;2.87;2.17;;;;;;;;;;4995749;28;20431;-79
2022/08/11 16:48:34;;;;;;;5.20;2.60;;;;;;;;;;4938326;28;20539;-78
2022/08/11 16:51:00;;;;;;;5.00;2.63;;;;;;;;;;5004345;28;20456;-77
2022/08/11 16:53:33;;;;;;;3.03;2.50;;;;;;;;;;4978157;28;20529;-79
2022/08/11 16:56:01;;;;;;;2.50;2.30;;;;;;;;;;4987695;28;21079;-78
2022/08/11 17:01:12;;;;;;;4.07;2.97;;;;;;;;;;4998976;28;20447;-79
2022/08/11 17:17:47;;;;;;;5.00;2.57;;;;;;;;;;4967714;28;20460;-77
2022/08/11 17:20:14;;;;;;;2.97;2.60;;;;;;;;;;4998942;28;20516;-78
2022/08/11 17:25:27;;;;;;;5.83;2.87;;;;;;;;;;5001107;28;20439;-77
2022/08/11 17:27:53;;;;;;;2.60;2.40;;;;;;;;;;4966579;28;20443;-78
2022/08/11 17:30:18;;;;;;;4.20;3.13;;;;;;;;;;5001066;28;20433;-78
2022/08/11 17:35:37;;;;;;;3.57;2.67;;;;;;;;;;4992937;28;20581;-76
2022/08/11 17:38:03;;;;;;;4.00;2.63;;;;;;;;;;4985706;28;20436;-77
2022/08/11 17:40:29;;;;;;;2.70;2.50;;;;;;;;;;5006825;28;20435;-77
2022/08/11 17:48:39;;;;;;;5.00;2.87;;;;;;;;;;4971547;28;21004;-76
2022/08/11 17:59:50;;;;;;;3.40;2.60;;;;;;;;;;5003583;28;20682;-78
2022/08/11 18:05:20;;;;;;;3.50;3.20;;;;;;;;;;5002750;28;20438;-77
